Cleone, Illinois
Current Conditions -  °F | °C
As of 4:15 AM on Sunday 25 Jan 2015 (Local Time) from KRSV Reporting Station
Broken Clouds Broken Clouds  
Wind Chill: 32°   Ceiling: 12000
Heat Index: 39°   Visibility: 10mi
Dew Point: 33°   Wind: 9mph
Humidity: 80%   Direction: 190°S
Pressure: 29.67"   Gusts: NA
Location:  39.2747°N, 87.8463°W
Report Text: KRSV 251015Z AUTO 19008KT 10SM BKN120 04/01 A2967 RMK AO2 T00370005
Loading
Personal Weather Stations






























Interactive Weather Map New forecast layout! Learn more

10-Day Weather Forecast

Advertisements
Track Severe Weather on mobile